This is the latest recevied weather packets stored in our database for station/object W5HKR. If no packets are shown the sender has not sent any weather packets the latest 10 day(s).
| Time | Temp. | Humidity | Pressure | Rain* | Wind** | Luminosity | Snow |
|---|---|---|---|---|---|---|---|
| 1777688900 | 13.33° C | 85% | 987.5 hPa | 0 mm | - | - | - |
| 1777688600 | 18.33° C | 91% | 990.6 hPa | 0 mm | - | - | - |
| 1777688551 | 18.33° C | 91% | 990.6 hPa | 0 mm | - | - | - |
| 1777687700 | 18.33° C | 91% | 990.6 hPa | 0 mm | - | - | - |
| 1777674202 | 18.33° C | 91% | 990.6 hPa | 0 mm | - | - | - |
| 1777673600 | 16.11° C | 88% | 984.3 hPa | 0 mm | - | - | - |
| 1777673300 | 18.33° C | 91% | 990.6 hPa | 0 mm | - | - | - |
| 1777672700 | 16.11° C | 88% | 983.6 hPa | 0 mm | - | - | - |
| 1777672400 | 16.11° C | 88% | 983.4 hPa | 0 mm | - | - | - |
| 1777672351 | 18.33° C | 91% | 990.6 hPa | 0 mm | - | - | - |
| 1777671499 | 18.33° C | 91% | 990.6 hPa | 0 mm | - | - | - |
| 1777670601 | 18.33° C | 91% | 990.6 hPa | 0 mm | - | - | - |
| 1777670299 | 16.11° C | 91% | 983.7 hPa | 0 mm | - | - | - |
| 1777670191 | 16.67° C | 91% | 983.4 hPa | 0 mm | - | - | - |
| 1777669700 | 18.33° C | 91% | 990.6 hPa | 0 mm | - | - | - |
| 1777669401 | 16.67° C | 90% | 983.4 hPa | 0 mm | - | - | - |
| 1777667902 | 17.22° C | 89% | 983.3 hPa | 0 mm | - | - | - |
| 1777667300 | 18.33° C | 91% | 990.6 hPa | 0 mm | - | - | - |
| 1777667000 | 18.33° C | 91% | 990.6 hPa | 0 mm | - | - | - |
| 1777666951 | 17.78° C | 88% | 982.7 hPa | 0 mm | - | - | - |
| 1777666699 | 18.33° C | 91% | 990.6 hPa | 0 mm | - | - | - |
| 1777666100 | 18.33° C | 91% | 990.6 hPa | 0 mm | - | - | - |
| 1777665799 | 18.33° C | 89% | 981.8 hPa | 0 mm | - | - | - |
| 1777665501 | 18.33° C | 91% | 990.6 hPa | 0 mm | - | - | - |
| 1777664300 | 17.78° C | 91% | 981.8 hPa | 0.76 mm | - | - | - |
* Rain latest hour (hover to see other rain measurements)
** Current wind speed in m/s (hover to see current wind gust speed)